Saltar para o conteúdo principal

Bragança

ID 1200575 · 41.8039, -6.7428 mapa

Última leitura · 2026-05-09 19:00 (Europe/Lisbon)

Temperatura
11.6 °C
Humidade
91 %
Pressão
1,007.7 hPa
Precipitação
0.0 mm
Radiação
869 W/m²
Velocidade do vento
5.4 km/h
Direcção do vento
E · Este

Histórico de 24 horas

Hora (Europe/Lisbon) Temperatura Humidade Pressão Chuva Vento Direcção
2026-05-09 19:00 11.6 °C 91 % 1,007.7 0.0 mm 5.4 km/h E
2026-05-09 18:00 10.9 °C 97 % 1,007.6 0.0 mm 7.9 km/h SE
2026-05-09 17:00 9.8 °C 99 % 1,007.8 2.3 mm 8.3 km/h E
2026-05-09 16:00 11.8 °C 90 % 1,007.0 1.7 mm 29.5 km/h S
2026-05-09 15:00 12.0 °C 96 % 1,007.3 0.0 mm 13.7 km/h SE
2026-05-09 14:00 11.1 °C 100 % 1,007.8 1.8 mm 14.0 km/h SE
2026-05-09 13:00 10.6 °C 100 % 1,008.3 1.6 mm 9.7 km/h SE
2026-05-09 12:00 11.5 °C 87 % 1,007.8 2.4 mm 22.7 km/h S
2026-05-09 11:00 13.1 °C 71 % 1,007.3 0.0 mm 15.1 km/h SE
2026-05-09 10:00 12.2 °C 80 % 1,008.0 0.0 mm 7.9 km/h E
2026-05-09 09:00 10.5 °C 97 % 1,008.5 0.0 mm 6.5 km/h SE
2026-05-09 08:00 9.8 °C 96 % 1,008.7 0.0 mm 4.3 km/h NE
2026-05-09 07:00 9.1 °C 99 % 1,009.0 0.0 mm 5.0 km/h N
2026-05-09 06:00 8.9 °C 99 % 1,009.1 0.0 mm 4.0 km/h N
2026-05-09 05:00 9.1 °C 97 % 1,009.4 0.1 mm 5.8 km/h N
2026-05-09 04:00 9.5 °C 89 % 1,009.4 0.3 mm 6.5 km/h NW
2026-05-09 03:00 9.5 °C 87 % 1,009.7 0.1 mm 7.2 km/h N
2026-05-09 02:00 9.0 °C 89 % 1,010.3 0.0 mm 6.8 km/h NW
2026-05-09 01:00 8.9 °C 89 % 1,010.7 0.0 mm 5.0 km/h NW
2026-05-09 00:00 9.0 °C 91 % 1,011.1 0.0 mm 6.1 km/h N
2026-05-08 23:00 8.9 °C 97 % 1,011.4 0.0 mm 6.1 km/h NW
2026-05-08 22:00 10.4 °C 89 % 1,010.9 0.0 mm 7.9 km/h NW
2026-05-08 21:00 11.2 °C 84 % 1,010.3 0.0 mm 6.1 km/h N
2026-05-08 20:00 11.8 °C 81 % 1,009.8 0.2 mm 3.2 km/h N